Terminal Aerodrome Forecast
Issued by NWS

Home | Current Version | Previous Version | Text Only | Print | Product List | Glossary On
Versions: 1 2 3 4 5 6 7 8 9 10 11 12 13 14 15 16 17 18 19 20 21 22
722
FTUS46 KSEW 210526
TAFBFI
TAF
KBFI 210526Z 2106/2206 VRB03KT P6SM SCT030 BKN070
     FM211100 VRB03KT P6SM SCT005 BKN010 OVC040
     FM211700 33005KT P6SM VCSH SCT018 BKN040 OVC060
     FM212000 22007KT P6SM -SHRA SCT018 BKN030 OVC050
     FM220200 20006KT P6SM SCT030 OVC050=

USA.gov is the U.S. government's official web portal to all federal, state and local government web resources and services.